Aviation Digital Data Service (ADDS)

Output produced by METARs form (1642 UTC 30 October 2020)
found at http://www.aviationweather.gov/metar/data/
 
Forecast for: LEMG (MALAGA (CIV/MIL), ES)
Text: TAF LEMG 301100Z 3012/3112 14006KT 9999 FEW025 TX23/3012Z TN11/3106Z
Forecast period: 1200 to 1800 UTC 30 October 2020
Forecast type: FROM: standard forecast or significant change
Winds: from the SE (140 degrees) at 7 MPH (6 knots; 3.1 m/s)
Visibility: 6 or more miles (10+ km)
Ceiling: at least 12,000 feet AGL
Clouds: few clouds at 2500 feet AGL
Weather: no significant weather forecast for this period
Text: BECMG 3018/3021 29006KT
Forecast period: 1800 UTC 30 October 2020 to 1000 UTC 31 October 2020
Forecast type: BECOMING: Conditions expected to become as follows by 2100 UTC 30 October 2020
Winds: from the WNW (290 degrees) at 7 MPH (6 knots; 3.1 m/s)
Visibility: 6 or more miles (10+ km)
Ceiling: at least 12,000 feet AGL
Clouds: few clouds at 2500 feet AGL
Weather: no significant weather forecast for this period
Text: BECMG 3110/3112 15008KT
Forecast period: 1000 to 1200 UTC 31 October 2020
Forecast type: BECOMING: Conditions expected to become as follows by 1200 UTC 31 October 2020
Winds: from the SSE (150 degrees) at 9 MPH (8 knots; 4.1 m/s)
Visibility: 6 or more miles (10+ km)
Ceiling: at least 12,000 feet AGL
Clouds: few clouds at 2500 feet AGL
Weather: no significant weather forecast for this period